sensor_id;sensor_type;location;lat;lon;timestamp;P1;durP1;ratioP1;P2;durP2;ratioP2
45356;SDS011;31092;51.924;21.448;2024-03-07T00:02:13;8.60;;;4.90;;
45356;SDS011;31092;51.924;21.448;2024-03-07T00:04:39;10.05;;;5.40;;
45356;SDS011;31092;51.924;21.448;2024-03-07T00:07:04;8.95;;;5.72;;
45356;SDS011;31092;51.924;21.448;2024-03-07T00:09:33;11.23;;;6.05;;
45356;SDS011;31092;51.924;21.448;2024-03-07T00:12:00;13.85;;;5.93;;
45356;SDS011;31092;51.924;21.448;2024-03-07T00:14:26;10.32;;;5.72;;
45356;SDS011;31092;51.924;21.448;2024-03-07T00:16:54;11.10;;;5.13;;
45356;SDS011;31092;51.924;21.448;2024-03-07T00:19:20;12.02;;;5.40;;
45356;SDS011;31092;51.924;21.448;2024-03-07T00:21:46;12.38;;;5.63;;
45356;SDS011;31092;51.924;21.448;2024-03-07T00:24:12;8.90;;;5.22;;
45356;SDS011;31092;51.924;21.448;2024-03-07T00:26:39;8.98;;;5.50;;
45356;SDS011;31092;51.924;21.448;2024-03-07T00:29:06;10.25;;;4.93;;
45356;SDS011;31092;51.924;21.448;2024-03-07T00:31:32;10.60;;;6.20;;
45356;SDS011;31092;51.924;21.448;2024-03-07T00:33:58;10.13;;;5.47;;
45356;SDS011;31092;51.924;21.448;2024-03-07T00:36:23;10.90;;;5.90;;
45356;SDS011;31092;51.924;21.448;2024-03-07T00:38:49;8.70;;;5.80;;
45356;SDS011;31092;51.924;21.448;2024-03-07T00:41:15;10.02;;;5.57;;
45356;SDS011;31092;51.924;21.448;2024-03-07T00:43:42;10.80;;;5.10;;
45356;SDS011;31092;51.924;21.448;2024-03-07T00:46:08;7.40;;;5.28;;
45356;SDS011;31092;51.924;21.448;2024-03-07T00:48:33;14.00;;;5.20;;
45356;SDS011;31092;51.924;21.448;2024-03-07T00:50:59;14.05;;;5.32;;
45356;SDS011;31092;51.924;21.448;2024-03-07T00:53:24;11.40;;;5.05;;
45356;SDS011;31092;51.924;21.448;2024-03-07T00:55:50;8.05;;;4.57;;
45356;SDS011;31092;51.924;21.448;2024-03-07T00:58:16;7.07;;;4.53;;
45356;SDS011;31092;51.924;21.448;2024-03-07T01:00:41;10.73;;;5.45;;
45356;SDS011;31092;51.924;21.448;2024-03-07T01:03:08;12.63;;;5.82;;
45356;SDS011;31092;51.924;21.448;2024-03-07T01:05:39;15.30;;;5.50;;
45356;SDS011;31092;51.924;21.448;2024-03-07T01:08:05;8.95;;;4.60;;
45356;SDS011;31092;51.924;21.448;2024-03-07T01:10:31;6.50;;;3.30;;
45356;SDS011;31092;51.924;21.448;2024-03-07T01:12:56;6.93;;;4.38;;
45356;SDS011;31092;51.924;21.448;2024-03-07T01:15:26;7.65;;;4.38;;
45356;SDS011;31092;51.924;21.448;2024-03-07T01:17:52;9.50;;;4.82;;
45356;SDS011;31092;51.924;21.448;2024-03-07T01:20:18;8.70;;;4.90;;
45356;SDS011;31092;51.924;21.448;2024-03-07T01:22:44;13.20;;;5.68;;
45356;SDS011;31092;51.924;21.448;2024-03-07T01:25:10;10.73;;;4.60;;
45356;SDS011;31092;51.924;21.448;2024-03-07T01:27:35;8.05;;;4.90;;
45356;SDS011;31092;51.924;21.448;2024-03-07T01:30:01;11.98;;;5.35;;
45356;SDS011;31092;51.924;21.448;2024-03-07T01:32:27;8.23;;;4.82;;
45356;SDS011;31092;51.924;21.448;2024-03-07T01:34:54;9.90;;;4.80;;
45356;SDS011;31092;51.924;21.448;2024-03-07T01:37:19;11.75;;;5.05;;
45356;SDS011;31092;51.924;21.448;2024-03-07T01:39:45;11.35;;;5.82;;
45356;SDS011;31092;51.924;21.448;2024-03-07T01:42:11;11.18;;;5.07;;
45356;SDS011;31092;51.924;21.448;2024-03-07T01:44:37;10.07;;;5.85;;
45356;SDS011;31092;51.924;21.448;2024-03-07T01:47:05;8.60;;;5.10;;
45356;SDS011;31092;51.924;21.448;2024-03-07T01:49:31;9.68;;;5.05;;
45356;SDS011;31092;51.924;21.448;2024-03-07T01:51:57;13.13;;;5.70;;
45356;SDS011;31092;51.924;21.448;2024-03-07T01:54:23;7.70;;;4.72;;
45356;SDS011;31092;51.924;21.448;2024-03-07T01:56:50;10.25;;;5.80;;
45356;SDS011;31092;51.924;21.448;2024-03-07T01:59:16;9.27;;;5.30;;
45356;SDS011;31092;51.924;21.448;2024-03-07T02:01:45;9.52;;;5.38;;
45356;SDS011;31092;51.924;21.448;2024-03-07T02:04:12;11.55;;;5.70;;
45356;SDS011;31092;51.924;21.448;2024-03-07T02:06:37;16.00;;;6.28;;
45356;SDS011;31092;51.924;21.448;2024-03-07T02:09:03;11.43;;;5.53;;
45356;SDS011;31092;51.924;21.448;2024-03-07T02:11:30;9.20;;;4.68;;
45356;SDS011;31092;51.924;21.448;2024-03-07T02:13:56;14.63;;;5.68;;
45356;SDS011;31092;51.924;21.448;2024-03-07T02:16:21;12.70;;;5.68;;
45356;SDS011;31092;51.924;21.448;2024-03-07T02:18:47;10.00;;;6.18;;
45356;SDS011;31092;51.924;21.448;2024-03-07T02:21:15;16.77;;;5.50;;
45356;SDS011;31092;51.924;21.448;2024-03-07T02:23:40;12.75;;;6.10;;
45356;SDS011;31092;51.924;21.448;2024-03-07T02:26:06;11.00;;;5.75;;
45356;SDS011;31092;51.924;21.448;2024-03-07T02:28:33;12.30;;;6.53;;
45356;SDS011;31092;51.924;21.448;2024-03-07T02:30:59;13.00;;;6.03;;
45356;SDS011;31092;51.924;21.448;2024-03-07T02:33:25;10.07;;;5.50;;
45356;SDS011;31092;51.924;21.448;2024-03-07T02:35:51;9.90;;;5.43;;
45356;SDS011;31092;51.924;21.448;2024-03-07T02:38:16;7.90;;;5.05;;
45356;SDS011;31092;51.924;21.448;2024-03-07T02:40:43;14.90;;;6.57;;
45356;SDS011;31092;51.924;21.448;2024-03-07T02:43:08;9.75;;;5.65;;
45356;SDS011;31092;51.924;21.448;2024-03-07T02:45:34;11.15;;;6.03;;
45356;SDS011;31092;51.924;21.448;2024-03-07T02:47:59;12.80;;;6.80;;
45356;SDS011;31092;51.924;21.448;2024-03-07T02:50:25;12.13;;;6.22;;
45356;SDS011;31092;51.924;21.448;2024-03-07T02:52:50;13.73;;;6.35;;
45356;SDS011;31092;51.924;21.448;2024-03-07T02:55:17;11.63;;;5.68;;
45356;SDS011;31092;51.924;21.448;2024-03-07T02:57:44;9.18;;;5.38;;
45356;SDS011;31092;51.924;21.448;2024-03-07T03:00:10;9.73;;;5.95;;
45356;SDS011;31092;51.924;21.448;2024-03-07T03:02:48;13.13;;;5.60;;
45356;SDS011;31092;51.924;21.448;2024-03-07T03:05:14;10.45;;;6.45;;
45356;SDS011;31092;51.924;21.448;2024-03-07T03:07:40;13.18;;;6.53;;
45356;SDS011;31092;51.924;21.448;2024-03-07T03:10:07;17.63;;;6.30;;
45356;SDS011;31092;51.924;21.448;2024-03-07T03:12:36;11.60;;;6.53;;
45356;SDS011;31092;51.924;21.448;2024-03-07T03:15:03;10.75;;;6.13;;
45356;SDS011;31092;51.924;21.448;2024-03-07T03:17:30;10.25;;;5.55;;
45356;SDS011;31092;51.924;21.448;2024-03-07T03:19:55;13.63;;;6.88;;
45356;SDS011;31092;51.924;21.448;2024-03-07T03:22:21;10.18;;;6.18;;
45356;SDS011;31092;51.924;21.448;2024-03-07T03:24:47;10.45;;;5.97;;
45356;SDS011;31092;51.924;21.448;2024-03-07T03:27:12;13.05;;;6.72;;
45356;SDS011;31092;51.924;21.448;2024-03-07T03:29:38;12.57;;;6.00;;
45356;SDS011;31092;51.924;21.448;2024-03-07T03:32:05;17.88;;;6.25;;
45356;SDS011;31092;51.924;21.448;2024-03-07T03:34:32;11.75;;;6.10;;
45356;SDS011;31092;51.924;21.448;2024-03-07T03:36:58;14.65;;;6.57;;
45356;SDS011;31092;51.924;21.448;2024-03-07T03:39:24;14.68;;;6.18;;
45356;SDS011;31092;51.924;21.448;2024-03-07T03:41:52;10.77;;;5.78;;
45356;SDS011;31092;51.924;21.448;2024-03-07T03:44:18;14.55;;;6.55;;
45356;SDS011;31092;51.924;21.448;2024-03-07T03:46:43;12.55;;;6.78;;
45356;SDS011;31092;51.924;21.448;2024-03-07T03:49:09;11.75;;;6.20;;
45356;SDS011;31092;51.924;21.448;2024-03-07T03:51:35;13.98;;;6.40;;
45356;SDS011;31092;51.924;21.448;2024-03-07T03:54:01;11.02;;;5.95;;
45356;SDS011;31092;51.924;21.448;2024-03-07T03:56:26;10.95;;;5.53;;
45356;SDS011;31092;51.924;21.448;2024-03-07T03:58:52;12.90;;;6.25;;
45356;SDS011;31092;51.924;21.448;2024-03-07T04:01:18;12.25;;;5.63;;
45356;SDS011;31092;51.924;21.448;2024-03-07T04:03:43;12.00;;;6.13;;
45356;SDS011;31092;51.924;21.448;2024-03-07T04:06:11;14.88;;;7.03;;
45356;SDS011;31092;51.924;21.448;2024-03-07T04:08:37;12.93;;;6.50;;
45356;SDS011;31092;51.924;21.448;2024-03-07T04:11:03;10.93;;;6.50;;
45356;SDS011;31092;51.924;21.448;2024-03-07T04:13:29;10.98;;;6.63;;
45356;SDS011;31092;51.924;21.448;2024-03-07T04:15:55;12.30;;;7.20;;
45356;SDS011;31092;51.924;21.448;2024-03-07T04:18:21;11.30;;;6.75;;
45356;SDS011;31092;51.924;21.448;2024-03-07T04:20:46;11.20;;;6.32;;
45356;SDS011;31092;51.924;21.448;2024-03-07T04:23:12;17.02;;;6.57;;
45356;SDS011;31092;51.924;21.448;2024-03-07T04:25:37;16.23;;;8.13;;
45356;SDS011;31092;51.924;21.448;2024-03-07T04:28:03;14.98;;;6.35;;
45356;SDS011;31092;51.924;21.448;2024-03-07T04:30:30;15.05;;;8.00;;
45356;SDS011;31092;51.924;21.448;2024-03-07T04:32:55;15.90;;;6.70;;
45356;SDS011;31092;51.924;21.448;2024-03-07T04:35:23;12.38;;;6.90;;
45356;SDS011;31092;51.924;21.448;2024-03-07T04:37:49;13.98;;;7.20;;
45356;SDS011;31092;51.924;21.448;2024-03-07T04:40:15;11.73;;;6.93;;
45356;SDS011;31092;51.924;21.448;2024-03-07T04:42:42;10.38;;;5.97;;
45356;SDS011;31092;51.924;21.448;2024-03-07T04:45:08;11.93;;;6.05;;
45356;SDS011;31092;51.924;21.448;2024-03-07T04:47:36;11.85;;;6.15;;
45356;SDS011;31092;51.924;21.448;2024-03-07T04:50:02;11.57;;;6.25;;
45356;SDS011;31092;51.924;21.448;2024-03-07T04:52:27;14.40;;;6.78;;
45356;SDS011;31092;51.924;21.448;2024-03-07T04:54:53;10.38;;;6.15;;
45356;SDS011;31092;51.924;21.448;2024-03-07T04:57:18;9.98;;;5.80;;
45356;SDS011;31092;51.924;21.448;2024-03-07T04:59:44;13.15;;;6.32;;
45356;SDS011;31092;51.924;21.448;2024-03-07T05:02:09;11.80;;;5.43;;
45356;SDS011;31092;51.924;21.448;2024-03-07T05:04:35;12.68;;;6.43;;
45356;SDS011;31092;51.924;21.448;2024-03-07T05:07:01;12.32;;;6.47;;
45356;SDS011;31092;51.924;21.448;2024-03-07T05:09:26;10.60;;;5.63;;
45356;SDS011;31092;51.924;21.448;2024-03-07T05:11:53;10.50;;;6.00;;
45356;SDS011;31092;51.924;21.448;2024-03-07T05:14:20;9.82;;;5.50;;
45356;SDS011;31092;51.924;21.448;2024-03-07T05:16:46;9.70;;;5.05;;
45356;SDS011;31092;51.924;21.448;2024-03-07T05:19:29;11.55;;;5.60;;
45356;SDS011;31092;51.924;21.448;2024-03-07T05:21:56;8.52;;;5.60;;
45356;SDS011;31092;51.924;21.448;2024-03-07T05:24:21;14.38;;;6.40;;
45356;SDS011;31092;51.924;21.448;2024-03-07T05:26:46;11.93;;;5.55;;
45356;SDS011;31092;51.924;21.448;2024-03-07T05:29:12;12.65;;;5.82;;
45356;SDS011;31092;51.924;21.448;2024-03-07T05:31:38;20.85;;;6.25;;
45356;SDS011;31092;51.924;21.448;2024-03-07T05:34:09;11.18;;;6.80;;
45356;SDS011;31092;51.924;21.448;2024-03-07T05:36:34;12.65;;;6.18;;
45356;SDS011;31092;51.924;21.448;2024-03-07T05:39:10;15.27;;;5.95;;
45356;SDS011;31092;51.924;21.448;2024-03-07T05:41:39;13.18;;;6.55;;
45356;SDS011;31092;51.924;21.448;2024-03-07T05:44:06;13.90;;;7.53;;
45356;SDS011;31092;51.924;21.448;2024-03-07T05:46:38;10.70;;;5.80;;
45356;SDS011;31092;51.924;21.448;2024-03-07T05:49:14;14.25;;;7.05;;
45356;SDS011;31092;51.924;21.448;2024-03-07T05:51:42;14.77;;;7.55;;
45356;SDS011;31092;51.924;21.448;2024-03-07T05:54:09;11.65;;;6.10;;
45356;SDS011;31092;51.924;21.448;2024-03-07T05:56:37;10.55;;;6.45;;
45356;SDS011;31092;51.924;21.448;2024-03-07T05:59:03;12.10;;;6.40;;
45356;SDS011;31092;51.924;21.448;2024-03-07T06:01:33;14.93;;;7.22;;
45356;SDS011;31092;51.924;21.448;2024-03-07T06:04:00;13.07;;;7.38;;
45356;SDS011;31092;51.924;21.448;2024-03-07T06:06:26;10.50;;;6.40;;
45356;SDS011;31092;51.924;21.448;2024-03-07T06:08:52;13.20;;;6.65;;
45356;SDS011;31092;51.924;21.448;2024-03-07T06:11:18;13.23;;;6.63;;
45356;SDS011;31092;51.924;21.448;2024-03-07T06:13:49;11.57;;;6.22;;
45356;SDS011;31092;51.924;21.448;2024-03-07T06:16:15;15.98;;;8.23;;
45356;SDS011;31092;51.924;21.448;2024-03-07T06:18:41;13.50;;;7.57;;
45356;SDS011;31092;51.924;21.448;2024-03-07T06:21:12;13.73;;;7.22;;
45356;SDS011;31092;51.924;21.448;2024-03-07T06:23:43;9.35;;;6.03;;
45356;SDS011;31092;51.924;21.448;2024-03-07T06:26:12;14.75;;;7.30;;
45356;SDS011;31092;51.924;21.448;2024-03-07T06:28:41;10.45;;;6.32;;
45356;SDS011;31092;51.924;21.448;2024-03-07T06:31:07;12.60;;;6.97;;
45356;SDS011;31092;51.924;21.448;2024-03-07T06:33:35;13.27;;;7.18;;
45356;SDS011;31092;51.924;21.448;2024-03-07T06:36:02;12.57;;;6.60;;
45356;SDS011;31092;51.924;21.448;2024-03-07T06:38:28;14.95;;;7.40;;
45356;SDS011;31092;51.924;21.448;2024-03-07T06:40:53;14.55;;;7.90;;
45356;SDS011;31092;51.924;21.448;2024-03-07T06:43:18;17.70;;;8.77;;
45356;SDS011;31092;51.924;21.448;2024-03-07T06:45:44;13.85;;;8.43;;
45356;SDS011;31092;51.924;21.448;2024-03-07T06:48:11;13.82;;;8.07;;
45356;SDS011;31092;51.924;21.448;2024-03-07T06:50:39;18.23;;;9.88;;
45356;SDS011;31092;51.924;21.448;2024-03-07T06:53:05;13.93;;;8.50;;
45356;SDS011;31092;51.924;21.448;2024-03-07T06:55:34;17.17;;;8.60;;
45356;SDS011;31092;51.924;21.448;2024-03-07T06:58:00;18.27;;;9.65;;
45356;SDS011;31092;51.924;21.448;2024-03-07T07:00:26;14.32;;;7.10;;
45356;SDS011;31092;51.924;21.448;2024-03-07T07:02:51;15.45;;;7.40;;
45356;SDS011;31092;51.924;21.448;2024-03-07T07:05:19;15.25;;;8.55;;
45356;SDS011;31092;51.924;21.448;2024-03-07T07:07:45;16.17;;;8.10;;
45356;SDS011;31092;51.924;21.448;2024-03-07T07:10:11;17.45;;;8.52;;
45356;SDS011;31092;51.924;21.448;2024-03-07T07:12:47;14.68;;;8.55;;
45356;SDS011;31092;51.924;21.448;2024-03-07T07:15:14;10.87;;;6.67;;
45356;SDS011;31092;51.924;21.448;2024-03-07T07:17:47;10.55;;;6.05;;
45356;SDS011;31092;51.924;21.448;2024-03-07T07:20:16;14.07;;;7.60;;
45356;SDS011;31092;51.924;21.448;2024-03-07T07:22:43;12.70;;;7.78;;
45356;SDS011;31092;51.924;21.448;2024-03-07T07:25:11;15.65;;;7.13;;
45356;SDS011;31092;51.924;21.448;2024-03-07T07:27:41;10.67;;;5.40;;
45356;SDS011;31092;51.924;21.448;2024-03-07T07:30:11;9.30;;;6.13;;
45356;SDS011;31092;51.924;21.448;2024-03-07T07:32:39;11.27;;;5.97;;
45356;SDS011;31092;51.924;21.448;2024-03-07T07:35:05;11.75;;;6.82;;
45356;SDS011;31092;51.924;21.448;2024-03-07T07:37:36;13.48;;;6.85;;
45356;SDS011;31092;51.924;21.448;2024-03-07T07:40:08;9.82;;;6.60;;
45356;SDS011;31092;51.924;21.448;2024-03-07T07:42:40;12.43;;;6.95;;
45356;SDS011;31092;51.924;21.448;2024-03-07T07:45:10;12.32;;;6.80;;
45356;SDS011;31092;51.924;21.448;2024-03-07T07:47:40;15.32;;;6.32;;
45356;SDS011;31092;51.924;21.448;2024-03-07T07:50:09;11.18;;;6.05;;
45356;SDS011;31092;51.924;21.448;2024-03-07T07:52:42;14.65;;;7.15;;
45356;SDS011;31092;51.924;21.448;2024-03-07T07:55:08;14.30;;;7.28;;
45356;SDS011;31092;51.924;21.448;2024-03-07T07:57:43;17.23;;;8.60;;
45356;SDS011;31092;51.924;21.448;2024-03-07T08:00:10;14.00;;;7.97;;
45356;SDS011;31092;51.924;21.448;2024-03-07T08:02:37;8.45;;;6.70;;
45356;SDS011;31092;51.924;21.448;2024-03-07T08:05:02;12.80;;;7.47;;
45356;SDS011;31092;51.924;21.448;2024-03-07T08:07:30;12.27;;;8.50;;
45356;SDS011;31092;51.924;21.448;2024-03-07T08:09:56;15.30;;;7.85;;
45356;SDS011;31092;51.924;21.448;2024-03-07T08:12:21;12.05;;;7.13;;
45356;SDS011;31092;51.924;21.448;2024-03-07T08:14:48;13.25;;;7.25;;
45356;SDS011;31092;51.924;21.448;2024-03-07T08:17:13;16.88;;;7.95;;
45356;SDS011;31092;51.924;21.448;2024-03-07T08:19:38;12.23;;;6.75;;
45356;SDS011;31092;51.924;21.448;2024-03-07T08:22:04;11.85;;;7.38;;
45356;SDS011;31092;51.924;21.448;2024-03-07T08:24:30;11.02;;;6.80;;
45356;SDS011;31092;51.924;21.448;2024-03-07T08:26:57;12.40;;;6.93;;
45356;SDS011;31092;51.924;21.448;2024-03-07T08:29:22;10.98;;;7.07;;
45356;SDS011;31092;51.924;21.448;2024-03-07T08:31:48;10.85;;;6.60;;
45356;SDS011;31092;51.924;21.448;2024-03-07T08:34:13;10.95;;;6.88;;
45356;SDS011;31092;51.924;21.448;2024-03-07T08:36:39;12.52;;;6.95;;
45356;SDS011;31092;51.924;21.448;2024-03-07T08:39:04;11.43;;;6.25;;
45356;SDS011;31092;51.924;21.448;2024-03-07T08:41:35;10.98;;;6.72;;
45356;SDS011;31092;51.924;21.448;2024-03-07T08:44:05;12.60;;;6.57;;
45356;SDS011;31092;51.924;21.448;2024-03-07T08:46:31;10.70;;;6.55;;
45356;SDS011;31092;51.924;21.448;2024-03-07T08:48:56;10.45;;;6.65;;
45356;SDS011;31092;51.924;21.448;2024-03-07T08:51:22;12.23;;;6.25;;
45356;SDS011;31092;51.924;21.448;2024-03-07T08:53:48;11.27;;;6.07;;
45356;SDS011;31092;51.924;21.448;2024-03-07T08:56:13;9.23;;;5.75;;
45356;SDS011;31092;51.924;21.448;2024-03-07T08:58:39;9.68;;;4.72;;
45356;SDS011;31092;51.924;21.448;2024-03-07T09:01:04;7.70;;;5.25;;
45356;SDS011;31092;51.924;21.448;2024-03-07T09:03:30;8.23;;;5.20;;
45356;SDS011;31092;51.924;21.448;2024-03-07T09:05:55;11.30;;;5.63;;
45356;SDS011;31092;51.924;21.448;2024-03-07T09:08:21;13.18;;;5.25;;
45356;SDS011;31092;51.924;21.448;2024-03-07T09:10:46;8.43;;;4.65;;
45356;SDS011;31092;51.924;21.448;2024-03-07T09:13:12;12.75;;;5.53;;
45356;SDS011;31092;51.924;21.448;2024-03-07T09:15:38;9.70;;;5.32;;
45356;SDS011;31092;51.924;21.448;2024-03-07T09:18:03;9.07;;;5.30;;
45356;SDS011;31092;51.924;21.448;2024-03-07T09:20:29;7.18;;;4.30;;
45356;SDS011;31092;51.924;21.448;2024-03-07T09:22:56;5.35;;;4.45;;
45356;SDS011;31092;51.924;21.448;2024-03-07T09:25:21;8.95;;;4.97;;
45356;SDS011;31092;51.924;21.448;2024-03-07T09:27:48;9.07;;;5.00;;
45356;SDS011;31092;51.924;21.448;2024-03-07T09:30:14;7.80;;;4.90;;
45356;SDS011;31092;51.924;21.448;2024-03-07T09:32:49;9.40;;;4.97;;
45356;SDS011;31092;51.924;21.448;2024-03-07T09:35:15;9.63;;;5.65;;
45356;SDS011;31092;51.924;21.448;2024-03-07T09:37:42;5.75;;;4.47;;
45356;SDS011;31092;51.924;21.448;2024-03-07T09:40:13;8.30;;;4.95;;
45356;SDS011;31092;51.924;21.448;2024-03-07T09:42:48;6.13;;;4.28;;
45356;SDS011;31092;51.924;21.448;2024-03-07T09:45:18;7.57;;;4.60;;
45356;SDS011;31092;51.924;21.448;2024-03-07T09:47:45;6.53;;;4.30;;
45356;SDS011;31092;51.924;21.448;2024-03-07T09:50:16;5.60;;;3.70;;
45356;SDS011;31092;51.924;21.448;2024-03-07T09:52:48;5.32;;;4.05;;
45356;SDS011;31092;51.924;21.448;2024-03-07T09:55:15;5.35;;;3.75;;
45356;SDS011;31092;51.924;21.448;2024-03-07T09:57:42;6.15;;;4.03;;
45356;SDS011;31092;51.924;21.448;2024-03-07T10:00:08;8.50;;;4.35;;
45356;SDS011;31092;51.924;21.448;2024-03-07T10:02:43;5.72;;;4.20;;
45356;SDS011;31092;51.924;21.448;2024-03-07T10:05:11;3.88;;;3.53;;
45356;SDS011;31092;51.924;21.448;2024-03-07T10:07:40;5.70;;;4.30;;
45356;SDS011;31092;51.924;21.448;2024-03-07T10:10:05;6.05;;;3.83;;
45356;SDS011;31092;51.924;21.448;2024-03-07T10:12:37;9.35;;;4.40;;
45356;SDS011;31092;51.924;21.448;2024-03-07T10:15:05;5.93;;;4.25;;
45356;SDS011;31092;51.924;21.448;2024-03-07T10:17:31;8.15;;;4.18;;
45356;SDS011;31092;51.924;21.448;2024-03-07T10:19:59;7.15;;;4.07;;
45356;SDS011;31092;51.924;21.448;2024-03-07T10:22:26;5.38;;;3.55;;
45356;SDS011;31092;51.924;21.448;2024-03-07T10:24:52;7.30;;;4.68;;
45356;SDS011;31092;51.924;21.448;2024-03-07T10:27:19;5.90;;;4.10;;
45356;SDS011;31092;51.924;21.448;2024-03-07T10:29:48;7.28;;;4.72;;
45356;SDS011;31092;51.924;21.448;2024-03-07T10:32:19;5.68;;;3.92;;
45356;SDS011;31092;51.924;21.448;2024-03-07T10:34:45;5.40;;;4.43;;
45356;SDS011;31092;51.924;21.448;2024-03-07T10:37:13;5.07;;;3.50;;
45356;SDS011;31092;51.924;21.448;2024-03-07T10:39:42;6.93;;;3.63;;
45356;SDS011;31092;51.924;21.448;2024-03-07T10:42:09;5.32;;;3.58;;
45356;SDS011;31092;51.924;21.448;2024-03-07T10:44:41;8.00;;;4.38;;
45356;SDS011;31092;51.924;21.448;2024-03-07T10:47:10;6.37;;;4.00;;
45356;SDS011;31092;51.924;21.448;2024-03-07T10:57:51;11.32;;;4.65;;
45356;SDS011;31092;51.924;21.448;2024-03-07T11:00:27;6.05;;;3.67;;
45356;SDS011;31092;51.924;21.448;2024-03-07T11:03:00;7.55;;;4.25;;
45356;SDS011;31092;51.924;21.448;2024-03-07T11:05:32;6.78;;;4.28;;
45356;SDS011;31092;51.924;21.448;2024-03-07T11:07:58;7.03;;;4.35;;
45356;SDS011;31092;51.924;21.448;2024-03-07T11:10:27;8.52;;;4.63;;
45356;SDS011;31092;51.924;21.448;2024-03-07T11:12:55;7.07;;;4.20;;
45356;SDS011;31092;51.924;21.448;2024-03-07T11:15:23;6.57;;;3.95;;
45356;SDS011;31092;51.924;21.448;2024-03-07T11:17:51;7.43;;;4.22;;
45356;SDS011;31092;51.924;21.448;2024-03-07T11:22:47;4.57;;;3.38;;
45356;SDS011;31092;51.924;21.448;2024-03-07T11:25:14;6.88;;;3.85;;
45356;SDS011;31092;51.924;21.448;2024-03-07T11:27:44;7.10;;;4.47;;
45356;SDS011;31092;51.924;21.448;2024-03-07T11:30:16;10.40;;;4.10;;
45356;SDS011;31092;51.924;21.448;2024-03-07T11:32:43;6.35;;;4.35;;
45356;SDS011;31092;51.924;21.448;2024-03-07T11:35:12;5.53;;;4.25;;
45356;SDS011;31092;51.924;21.448;2024-03-07T11:37:42;6.95;;;4.25;;
45356;SDS011;31092;51.924;21.448;2024-03-07T11:40:11;10.23;;;5.25;;
45356;SDS011;31092;51.924;21.448;2024-03-07T11:42:46;6.80;;;4.72;;
45356;SDS011;31092;51.924;21.448;2024-03-07T11:45:15;6.90;;;4.57;;
45356;SDS011;31092;51.924;21.448;2024-03-07T11:47:54;10.27;;;5.43;;
45356;SDS011;31092;51.924;21.448;2024-03-07T11:50:36;6.20;;;4.40;;
45356;SDS011;31092;51.924;21.448;2024-03-07T11:53:03;7.82;;;4.80;;
45356;SDS011;31092;51.924;21.448;2024-03-07T11:55:32;8.20;;;4.90;;
45356;SDS011;31092;51.924;21.448;2024-03-07T11:58:11;5.35;;;3.47;;
45356;SDS011;31092;51.924;21.448;2024-03-07T12:00:41;7.60;;;4.03;;
45356;SDS011;31092;51.924;21.448;2024-03-07T12:03:10;6.78;;;3.60;;
45356;SDS011;31092;51.924;21.448;2024-03-07T12:05:40;8.50;;;4.13;;
45356;SDS011;31092;51.924;21.448;2024-03-07T12:08:06;5.88;;;4.20;;
45356;SDS011;31092;51.924;21.448;2024-03-07T12:10:34;8.82;;;4.30;;
45356;SDS011;31092;51.924;21.448;2024-03-07T12:13:01;6.82;;;4.40;;
45356;SDS011;31092;51.924;21.448;2024-03-07T12:15:28;7.00;;;4.25;;
45356;SDS011;31092;51.924;21.448;2024-03-07T12:17:55;7.70;;;4.50;;
45356;SDS011;31092;51.924;21.448;2024-03-07T12:20:22;7.82;;;4.25;;
45356;SDS011;31092;51.924;21.448;2024-03-07T12:22:58;6.20;;;4.25;;
45356;SDS011;31092;51.924;21.448;2024-03-07T12:25:27;6.55;;;4.43;;
45356;SDS011;31092;51.924;21.448;2024-03-07T12:28:04;9.23;;;4.95;;
45356;SDS011;31092;51.924;21.448;2024-03-07T12:30:37;10.77;;;4.95;;
45356;SDS011;31092;51.924;21.448;2024-03-07T12:33:16;5.80;;;4.18;;
45356;SDS011;31092;51.924;21.448;2024-03-07T12:35:43;7.53;;;4.72;;
45356;SDS011;31092;51.924;21.448;2024-03-07T12:38:09;7.00;;;4.30;;
45356;SDS011;31092;51.924;21.448;2024-03-07T12:40:39;7.93;;;4.95;;
45356;SDS011;31092;51.924;21.448;2024-03-07T12:43:17;6.80;;;3.95;;
45356;SDS011;31092;51.924;21.448;2024-03-07T12:45:50;8.68;;;4.60;;
45356;SDS011;31092;51.924;21.448;2024-03-07T12:48:17;7.13;;;4.20;;
45356;SDS011;31092;51.924;21.448;2024-03-07T12:50:49;8.88;;;4.63;;
45356;SDS011;31092;51.924;21.448;2024-03-07T12:53:21;7.55;;;4.80;;
45356;SDS011;31092;51.924;21.448;2024-03-07T12:55:48;6.85;;;3.97;;
45356;SDS011;31092;51.924;21.448;2024-03-07T12:58:14;8.07;;;4.63;;
45356;SDS011;31092;51.924;21.448;2024-03-07T13:00:52;5.13;;;3.50;;
45356;SDS011;31092;51.924;21.448;2024-03-07T13:03:17;5.18;;;3.80;;
45356;SDS011;31092;51.924;21.448;2024-03-07T13:05:43;8.00;;;3.38;;
45356;SDS011;31092;51.924;21.448;2024-03-07T13:08:09;4.18;;;3.40;;
45356;SDS011;31092;51.924;21.448;2024-03-07T13:10:43;8.73;;;4.18;;
45356;SDS011;31092;51.924;21.448;2024-03-07T13:13:09;6.05;;;3.30;;
45356;SDS011;31092;51.924;21.448;2024-03-07T13:15:36;4.32;;;2.97;;
45356;SDS011;31092;51.924;21.448;2024-03-07T13:18:03;5.40;;;3.13;;
45356;SDS011;31092;51.924;21.448;2024-03-07T13:20:30;6.60;;;3.78;;
45356;SDS011;31092;51.924;21.448;2024-03-07T13:22:56;5.53;;;3.85;;
45356;SDS011;31092;51.924;21.448;2024-03-07T13:25:24;4.90;;;3.60;;
45356;SDS011;31092;51.924;21.448;2024-03-07T13:27:52;6.15;;;4.25;;
45356;SDS011;31092;51.924;21.448;2024-03-07T13:30:24;6.28;;;4.05;;
45356;SDS011;31092;51.924;21.448;2024-03-07T13:32:54;5.15;;;3.80;;
45356;SDS011;31092;51.924;21.448;2024-03-07T13:35:20;4.70;;;2.90;;
45356;SDS011;31092;51.924;21.448;2024-03-07T13:37:47;6.20;;;3.50;;
45356;SDS011;31092;51.924;21.448;2024-03-07T13:40:13;3.47;;;3.17;;
45356;SDS011;31092;51.924;21.448;2024-03-07T13:42:51;3.67;;;3.22;;
45356;SDS011;31092;51.924;21.448;2024-03-07T13:45:19;7.20;;;3.60;;
45356;SDS011;31092;51.924;21.448;2024-03-07T13:47:46;6.97;;;4.20;;
45356;SDS011;31092;51.924;21.448;2024-03-07T13:50:14;6.20;;;3.60;;
45356;SDS011;31092;51.924;21.448;2024-03-07T13:52:40;4.60;;;3.38;;
45356;SDS011;31092;51.924;21.448;2024-03-07T13:55:19;6.65;;;3.08;;
45356;SDS011;31092;51.924;21.448;2024-03-07T13:57:49;5.75;;;3.85;;
45356;SDS011;31092;51.924;21.448;2024-03-07T14:01:27;5.10;;;3.55;;
45356;SDS011;31092;51.924;21.448;2024-03-07T14:12:19;5.88;;;3.33;;
45356;SDS011;31092;51.924;21.448;2024-03-07T14:29:30;8.98;;;3.65;;
45356;SDS011;31092;51.924;21.448;2024-03-07T14:32:09;4.47;;;2.85;;
45356;SDS011;31092;51.924;21.448;2024-03-07T14:34:49;4.53;;;3.22;;
45356;SDS011;31092;51.924;21.448;2024-03-07T14:37:23;4.97;;;3.17;;
45356;SDS011;31092;51.924;21.448;2024-03-07T14:39:55;6.75;;;3.60;;
45356;SDS011;31092;51.924;21.448;2024-03-07T14:42:44;4.53;;;2.90;;
45356;SDS011;31092;51.924;21.448;2024-03-07T14:45:12;11.43;;;3.83;;
45356;SDS011;31092;51.924;21.448;2024-03-07T14:47:44;3.78;;;3.13;;
45356;SDS011;31092;51.924;21.448;2024-03-07T14:50:12;4.30;;;3.22;;
45356;SDS011;31092;51.924;21.448;2024-03-07T14:52:37;7.63;;;3.92;;
45356;SDS011;31092;51.924;21.448;2024-03-07T14:55:06;9.18;;;3.47;;
45356;SDS011;31092;51.924;21.448;2024-03-07T14:57:33;5.05;;;3.38;;
45356;SDS011;31092;51.924;21.448;2024-03-07T14:59:58;5.78;;;3.92;;
45356;SDS011;31092;51.924;21.448;2024-03-07T15:02:24;7.07;;;3.60;;
45356;SDS011;31092;51.924;21.448;2024-03-07T15:04:51;7.55;;;3.42;;
45356;SDS011;31092;51.924;21.448;2024-03-07T15:07:18;6.45;;;3.75;;